createdAt,value
2023-04-17T00:01:15.939Z,56.69
2023-04-17T00:03:47.332Z,57.05
2023-04-17T00:06:16.405Z,56.73
2023-04-17T00:08:44.639Z,56.77
2023-04-17T00:11:12.506Z,57.11
2023-04-17T00:13:40.420Z,56.80
2023-04-17T00:16:10.685Z,57.06
2023-04-17T00:18:38.588Z,56.94
2023-04-17T00:21:07.898Z,57.32
2023-04-17T00:23:35.760Z,56.73
2023-04-17T00:26:03.625Z,56.81
2023-04-17T00:28:31.488Z,57.06
2023-04-17T00:30:59.660Z,56.88
2023-04-17T00:33:27.548Z,57.30
2023-04-17T00:35:55.508Z,57.07
2023-04-17T00:38:24.732Z,57.31
2023-04-17T00:40:52.718Z,57.22
2023-04-17T00:43:20.666Z,56.98
2023-04-17T00:45:48.641Z,57.31
2023-04-17T00:48:16.750Z,57.26
2023-04-17T00:50:44.838Z,57.18
2023-04-17T00:53:12.819Z,57.02
2023-04-17T00:55:42.158Z,56.84
2023-04-17T00:58:10.122Z,57.35
2023-04-17T01:00:37.972Z,57.13
2023-04-17T01:03:06.142Z,56.89
2023-04-17T01:05:35.609Z,57.27
2023-04-17T01:08:03.527Z,57.31
2023-04-17T01:10:31.837Z,57.36
2023-04-17T01:13:04.303Z,56.97
2023-04-17T01:15:32.151Z,57.11
2023-04-17T01:18:00.209Z,57.19
2023-04-17T01:20:31.113Z,57.04
2023-04-17T01:22:59.275Z,57.39
2023-04-17T01:25:28.834Z,57.36
2023-04-17T01:27:56.890Z,57.23
2023-04-17T01:30:24.855Z,57.17
2023-04-17T01:32:54.962Z,57.06
2023-04-17T01:35:23.091Z,57.11
2023-04-17T01:37:51.193Z,57.43
2023-04-17T01:40:19.319Z,57.06
2023-04-17T01:42:48.585Z,57.26
2023-04-17T01:45:16.557Z,57.09
2023-04-17T01:47:44.499Z,57.34
2023-04-17T01:50:13.684Z,56.97
2023-04-17T01:52:41.576Z,57.05
2023-04-17T01:55:10.150Z,56.99
2023-04-17T01:57:38.101Z,56.93
2023-04-17T02:00:09.299Z,57.20
2023-04-17T02:02:37.378Z,57.20
2023-04-17T02:05:05.905Z,57.14
2023-04-17T02:07:33.797Z,57.32
2023-04-17T02:10:01.708Z,57.54
2023-04-17T02:12:29.654Z,57.27
2023-04-17T02:15:01.191Z,57.15
2023-04-17T02:17:30.566Z,57.04
2023-04-17T02:19:58.424Z,57.59
2023-04-17T02:22:26.338Z,57.45
2023-04-17T02:24:54.231Z,57.35
2023-04-17T02:27:22.182Z,57.79
2023-04-17T02:29:50.086Z,57.56
2023-04-17T02:32:18.168Z,58.00
2023-04-17T02:34:47.475Z,58.19
2023-04-17T02:37:15.521Z,58.11
2023-04-17T02:39:43.436Z,57.97
2023-04-17T02:42:12.969Z,58.24
2023-04-17T02:44:40.977Z,58.06
2023-04-17T02:47:08.868Z,58.17
2023-04-17T02:49:36.725Z,57.89
2023-04-17T02:52:06.809Z,57.83
2023-04-17T02:54:34.760Z,58.23
2023-04-17T02:57:03.137Z,57.79
2023-04-17T02:59:31.072Z,58.16
2023-04-17T03:01:59.882Z,58.12
2023-04-17T03:04:28.708Z,58.19
2023-04-17T03:06:56.658Z,58.12
2023-04-17T03:09:26.157Z,58.21
2023-04-17T03:11:54.030Z,57.93
2023-04-17T03:14:21.892Z,57.96
2023-04-17T03:16:49.805Z,57.87
2023-04-17T03:19:17.710Z,57.83
2023-04-17T03:21:45.681Z,58.34
2023-04-17T03:24:13.570Z,57.98
2023-04-17T03:26:42.879Z,57.96
2023-04-17T03:29:11.083Z,57.95
2023-04-17T03:31:39.128Z,58.15
2023-04-17T03:34:07.048Z,58.20
2023-04-17T03:36:35.685Z,58.02
2023-04-17T03:39:03.596Z,58.11
2023-04-17T03:41:31.522Z,57.61
2023-04-17T03:44:00.887Z,58.00
2023-04-17T03:46:28.840Z,57.59
2023-04-17T03:48:56.747Z,57.89
2023-04-17T03:51:24.836Z,57.71
2023-04-17T03:53:52.741Z,57.97
2023-04-17T03:56:20.629Z,57.87
2023-04-17T03:58:48.495Z,57.72
2023-04-17T04:01:17.758Z,57.90
2023-04-17T04:03:45.868Z,57.49
2023-04-17T04:06:14.006Z,57.48
2023-04-17T04:08:41.883Z,57.74
2023-04-17T04:11:09.801Z,57.49
2023-04-17T04:13:37.677Z,57.54
2023-04-17T04:16:05.776Z,57.57
2023-04-17T04:18:35.109Z,57.47
2023-04-17T04:21:03.001Z,57.71
2023-04-17T04:23:31.080Z,57.32
2023-04-17T04:26:01.721Z,57.49
2023-04-17T04:28:30.294Z,57.36
2023-04-17T04:30:58.861Z,57.37
2023-04-17T04:33:27.703Z,57.53
2023-04-17T04:36:01.113Z,57.50
2023-04-17T04:38:32.727Z,57.39
2023-04-17T04:41:06.210Z,57.25
2023-04-17T04:43:34.894Z,57.23
2023-04-17T04:46:02.762Z,57.58
2023-04-17T04:48:30.741Z,57.38
2023-04-17T04:50:59.996Z,57.21
2023-04-17T04:53:27.955Z,57.48
2023-04-17T04:55:55.939Z,57.24
2023-04-17T04:58:24.007Z,57.52
2023-04-17T05:00:51.888Z,57.61
2023-04-17T05:03:20.012Z,57.71
2023-04-17T05:05:47.978Z,57.47
2023-04-17T05:08:17.320Z,57.75
2023-04-17T05:10:46.103Z,57.67
2023-04-17T05:13:14.040Z,57.87
2023-04-17T05:15:42.517Z,57.91
2023-04-17T05:18:10.544Z,57.43
2023-04-17T05:20:41.197Z,57.92
2023-04-17T05:23:09.042Z,57.78
2023-04-17T05:25:38.342Z,57.46
2023-04-17T05:28:06.594Z,57.61
2023-04-17T05:30:34.882Z,57.54
2023-04-17T05:33:03.121Z,57.74
2023-04-17T05:35:31.025Z,57.86
2023-04-17T05:37:58.909Z,57.81
2023-04-17T05:40:26.864Z,57.88
2023-04-17T05:42:56.527Z,57.84
2023-04-17T05:45:25.783Z,57.91
2023-04-17T05:47:53.794Z,57.66
2023-04-17T05:50:21.854Z,57.45
2023-04-17T05:52:49.720Z,57.69
2023-04-17T05:55:20.133Z,57.59
2023-04-17T05:57:48.046Z,57.40
2023-04-17T06:00:18.764Z,57.62
2023-04-17T06:02:46.997Z,57.59
2023-04-17T06:05:16.536Z,57.64
2023-04-17T06:07:44.569Z,57.49
2023-04-17T06:10:12.901Z,57.36
2023-04-17T06:12:40.804Z,57.37
2023-04-17T06:15:10.115Z,57.48
2023-04-17T06:17:39.475Z,57.77
2023-04-17T06:20:10.454Z,57.63
2023-04-17T06:22:38.389Z,57.41
2023-04-17T06:25:07.542Z,57.36
2023-04-17T06:27:36.922Z,57.28
2023-04-17T06:30:06.175Z,57.43
2023-04-17T06:32:36.799Z,57.43
2023-04-17T06:35:06.780Z,57.43
2023-04-17T06:37:34.672Z,57.42
2023-04-17T06:40:02.571Z,57.04
2023-04-17T06:42:30.477Z,57.26
2023-04-17T06:44:58.334Z,57.43
2023-04-17T06:47:26.228Z,57.26
2023-04-17T06:49:54.084Z,57.07
2023-04-17T06:52:23.355Z,57.25
2023-04-17T06:54:51.346Z,57.16
2023-04-17T06:57:19.286Z,57.07
2023-04-17T06:59:47.201Z,57.20
2023-04-17T07:02:15.236Z,56.95
2023-04-17T07:04:43.455Z,57.30
2023-04-17T07:07:11.896Z,57.32
2023-04-17T07:09:43.023Z,56.93
2023-04-17T07:12:10.973Z,57.14
2023-04-17T07:14:40.623Z,56.97
2023-04-17T07:17:08.545Z,57.04
2023-04-17T07:19:36.532Z,57.15
2023-04-17T07:22:05.514Z,56.67
2023-04-17T07:24:35.097Z,56.70
2023-04-17T07:27:04.622Z,56.81
2023-04-17T07:29:33.499Z,56.79
2023-04-17T07:32:01.694Z,56.38
2023-04-17T07:34:31.352Z,56.73
2023-04-17T07:36:59.298Z,56.53
2023-04-17T07:39:31.590Z,56.25
2023-04-17T07:41:59.502Z,56.23
2023-04-17T07:44:28.939Z,56.32
2023-04-17T07:46:56.968Z,56.46
2023-04-17T07:49:25.088Z,56.13
2023-04-17T07:51:53.025Z,56.39
2023-04-17T07:54:21.115Z,55.94
2023-04-17T07:56:49.430Z,55.77
2023-04-17T07:59:17.407Z,56.10
2023-04-17T08:01:46.682Z,55.90
2023-04-17T08:04:14.861Z,56.13
2023-04-17T08:06:43.326Z,56.23
2023-04-17T08:09:11.585Z,55.70
2023-04-17T08:11:53.439Z,55.90
2023-04-17T08:14:25.054Z,55.83
2023-04-17T08:16:54.549Z,55.70
2023-04-17T08:19:22.602Z,55.54
2023-04-17T08:21:50.831Z,55.67
2023-04-17T08:24:19.881Z,55.72
2023-04-17T08:26:48.481Z,55.41
2023-04-17T08:29:16.590Z,55.34
2023-04-17T08:31:44.561Z,55.42
2023-04-17T08:34:15.244Z,55.48
2023-04-17T08:36:43.619Z,54.94
2023-04-17T08:39:12.412Z,55.14
2023-04-17T08:41:43.849Z,54.86
2023-04-17T08:44:11.876Z,54.96
2023-04-17T08:46:40.724Z,54.86
2023-04-17T08:49:08.867Z,54.46
2023-04-17T08:51:38.214Z,54.42
2023-04-17T08:54:06.349Z,54.10
2023-04-17T08:56:34.259Z,54.06
2023-04-17T08:59:02.188Z,53.96
2023-04-17T09:01:30.235Z,53.88
2023-04-17T09:03:58.331Z,53.50
2023-04-17T09:06:27.529Z,53.17
2023-04-17T09:08:58.100Z,53.44
2023-04-17T09:11:26.099Z,53.50
2023-04-17T09:13:54.027Z,53.25
2023-04-17T09:16:22.005Z,53.25
2023-04-17T09:18:50.460Z,52.88
2023-04-17T09:21:19.701Z,52.74
2023-04-17T09:23:49.387Z,52.65
2023-04-17T09:26:21.102Z,52.64
2023-04-17T09:29:09.351Z,52.31
2023-04-17T09:31:38.024Z,52.48
2023-04-17T09:34:07.566Z,52.42
2023-04-17T09:36:36.857Z,52.03
2023-04-17T09:39:05.535Z,51.85
2023-04-17T09:41:36.422Z,51.56
2023-04-17T09:44:06.511Z,51.22
2023-04-17T09:46:35.489Z,51.19
2023-04-17T09:49:04.253Z,51.21
2023-04-17T09:51:32.325Z,50.87
2023-04-17T09:54:00.220Z,50.40
2023-04-17T09:56:29.648Z,50.22
2023-04-17T09:58:59.123Z,50.13
2023-04-17T10:01:27.702Z,50.04
2023-04-17T10:03:56.019Z,49.73
2023-04-17T10:06:24.143Z,49.91
2023-04-17T10:08:52.056Z,50.07
2023-04-17T10:11:19.950Z,49.86
2023-04-17T10:13:48.325Z,49.94
2023-04-17T10:16:17.799Z,49.79
2023-04-17T10:18:45.933Z,49.75
2023-04-17T10:21:21.866Z,49.77
2023-04-17T10:23:49.861Z,49.46
2023-04-17T10:26:41.655Z,49.73
2023-04-17T10:29:09.667Z,49.87
2023-04-17T10:32:28.433Z,49.70
2023-04-17T10:34:58.305Z,49.87
2023-04-17T10:38:07.738Z,50.13
2023-04-17T10:40:36.386Z,49.96
2023-04-17T10:43:07.008Z,50.17
2023-04-17T10:45:57.499Z,49.99
2023-04-17T10:48:29.296Z,49.88
2023-04-17T10:50:58.828Z,49.77
2023-04-17T10:53:43.344Z,49.42
2023-04-17T10:56:11.651Z,49.87
2023-04-17T10:58:40.594Z,49.78
2023-04-17T11:01:12.287Z,49.95
2023-04-17T11:03:40.301Z,49.82
2023-04-17T11:06:10.260Z,49.83
2023-04-17T11:08:38.151Z,49.72
2023-04-17T11:11:06.265Z,49.76
2023-04-17T11:13:35.246Z,49.56
2023-04-17T11:16:04.925Z,49.52
2023-04-17T11:18:33.087Z,49.67
2023-04-17T11:21:02.176Z,49.81
2023-04-17T11:23:34.596Z,49.85
2023-04-17T11:26:02.583Z,49.73
2023-04-17T11:28:30.609Z,49.91
2023-04-17T11:30:58.529Z,49.84
2023-04-17T11:33:26.675Z,49.62
2023-04-17T11:35:55.380Z,49.77
2023-04-17T11:38:23.801Z,49.61
2023-04-17T11:40:53.972Z,49.43
2023-04-17T11:43:22.564Z,49.01
2023-04-17T11:45:51.871Z,48.94
2023-04-17T11:48:22.652Z,48.84
2023-04-17T11:50:50.546Z,48.53
2023-04-17T11:53:18.589Z,48.62
2023-04-17T11:55:51.031Z,48.74
2023-04-17T11:58:20.634Z,48.79
2023-04-17T12:00:48.608Z,48.60
2023-04-17T12:03:33.864Z,48.70
2023-04-17T12:06:02.320Z,48.73
2023-04-17T12:08:31.124Z,48.78
2023-04-17T12:10:59.222Z,48.82
2023-04-17T12:13:32.716Z,48.95
2023-04-17T12:16:00.852Z,49.01
2023-04-17T12:18:28.962Z,48.82
2023-04-17T12:20:57.045Z,48.96
2023-04-17T12:23:25.374Z,48.94
2023-04-17T12:25:53.263Z,49.18
2023-04-17T12:28:22.135Z,49.09
2023-04-17T12:30:51.627Z,49.29
2023-04-17T12:33:19.561Z,49.53
2023-04-17T12:35:47.451Z,49.53
2023-04-17T12:38:15.562Z,49.83
2023-04-17T12:40:45.462Z,50.37
2023-04-17T12:43:13.955Z,51.79
2023-04-17T12:45:45.787Z,54.37
2023-04-17T12:48:15.646Z,54.33
2023-04-17T12:50:43.981Z,54.07
2023-04-17T12:53:12.766Z,52.85
2023-04-17T12:55:41.170Z,51.27
2023-04-17T12:58:10.359Z,49.31
2023-04-17T13:00:38.445Z,47.41
2023-04-17T13:03:06.826Z,46.78
2023-04-17T13:05:36.653Z,45.90
2023-04-17T13:08:04.771Z,45.06
2023-04-17T13:10:34.269Z,43.85
2023-04-17T13:13:04.703Z,42.68
2023-04-17T13:15:33.181Z,41.64
2023-04-17T13:18:02.205Z,40.31
2023-04-17T13:20:30.291Z,40.56
2023-04-17T13:22:59.997Z,40.52
2023-04-17T13:25:27.956Z,41.18
2023-04-17T13:27:56.216Z,41.54
2023-04-17T13:30:24.954Z,41.99
2023-04-17T13:32:52.940Z,42.62
2023-04-17T13:35:20.906Z,42.88
2023-04-17T13:37:49.011Z,43.36
2023-04-17T13:40:18.544Z,43.43
2023-04-17T13:42:46.695Z,43.80
2023-04-17T13:45:16.104Z,44.22
2023-04-17T13:47:44.638Z,44.05
2023-04-17T13:50:12.627Z,44.08
2023-04-17T13:52:40.825Z,44.27
2023-04-17T13:55:13.102Z,44.47
2023-04-17T13:57:42.480Z,44.72
2023-04-17T14:00:11.944Z,44.99
2023-04-17T14:02:40.159Z,44.73
2023-04-17T14:05:09.170Z,44.62
2023-04-17T14:07:37.623Z,44.94
2023-04-17T14:10:06.464Z,44.83
2023-04-17T14:12:34.616Z,44.84
2023-04-17T14:15:03.972Z,44.74
2023-04-17T14:17:32.645Z,44.90
2023-04-17T14:20:00.621Z,45.19
2023-04-17T14:22:28.446Z,45.25
2023-04-17T14:24:56.601Z,45.40
2023-04-17T14:27:24.547Z,45.57
2023-04-17T14:29:52.393Z,45.86
2023-04-17T14:32:21.805Z,45.69
2023-04-17T14:34:49.895Z,45.79
2023-04-17T14:37:17.997Z,45.93
2023-04-17T14:39:45.966Z,46.07
2023-04-17T14:42:13.854Z,46.12
2023-04-17T14:44:43.713Z,46.15
2023-04-17T14:47:13.159Z,46.29
2023-04-17T14:49:42.468Z,46.39
2023-04-17T14:52:10.373Z,46.52
2023-04-17T14:54:38.342Z,46.77
2023-04-17T14:57:06.352Z,46.83
2023-04-17T14:59:34.484Z,47.04
2023-04-17T15:02:02.497Z,47.08
2023-04-17T15:04:30.935Z,47.04
2023-04-17T15:07:00.441Z,47.25
2023-04-17T15:09:29.644Z,47.29
2023-04-17T15:11:57.899Z,47.53
2023-04-17T15:14:26.539Z,47.13
2023-04-17T15:16:54.572Z,47.06
2023-04-17T15:19:22.668Z,47.12
2023-04-17T15:21:50.752Z,46.88
2023-04-17T15:24:20.001Z,47.40
2023-04-17T15:26:49.025Z,47.40
2023-04-17T15:29:17.003Z,47.34
2023-04-17T15:31:44.882Z,47.45
2023-04-17T15:34:13.615Z,47.37
2023-04-17T15:36:42.154Z,47.54
2023-04-17T15:39:10.222Z,47.47
2023-04-17T15:41:40.627Z,47.65
2023-04-17T15:44:08.885Z,47.51
2023-04-17T15:46:37.129Z,47.50
2023-04-17T15:49:08.850Z,47.54
2023-04-17T15:51:49.548Z,47.17
2023-04-17T15:54:18.432Z,47.11
2023-04-17T15:56:47.916Z,46.70
2023-04-17T15:59:16.099Z,46.57
2023-04-17T16:01:44.911Z,46.54
2023-04-17T16:04:13.045Z,46.48
2023-04-17T16:06:41.284Z,46.43
2023-04-17T16:09:10.008Z,46.57
2023-04-17T16:11:38.015Z,46.56
2023-04-17T16:14:07.655Z,46.73
2023-04-17T16:16:35.694Z,46.93
2023-04-17T16:19:03.698Z,46.87
2023-04-17T16:21:32.012Z,46.82
2023-04-17T16:23:59.906Z,46.57
2023-04-17T16:26:27.998Z,46.67
2023-04-17T16:28:55.884Z,46.99
2023-04-17T16:31:26.177Z,46.98
2023-04-17T16:33:54.102Z,47.37
2023-04-17T16:36:21.990Z,47.37
2023-04-17T16:38:49.894Z,47.48
2023-04-17T16:41:18.736Z,47.46
2023-04-17T16:43:46.994Z,47.73
2023-04-17T16:46:23.829Z,47.69
2023-04-17T16:48:57.705Z,47.76
2023-04-17T16:51:26.252Z,47.80
2023-04-17T16:53:54.162Z,47.69
2023-04-17T16:56:22.239Z,47.69
2023-04-17T16:58:50.609Z,47.52
2023-04-17T17:01:26.887Z,47.49
2023-04-17T17:03:54.826Z,47.50
2023-04-17T17:06:23.050Z,47.51
2023-04-17T17:08:52.088Z,47.30
2023-04-17T17:11:21.788Z,47.26
2023-04-17T17:13:50.246Z,47.26
2023-04-17T17:16:18.848Z,47.34
2023-04-17T17:18:48.974Z,47.31
2023-04-17T17:21:17.538Z,47.48
2023-04-17T17:23:45.436Z,47.55
2023-04-17T17:26:13.386Z,47.62
2023-04-17T17:28:41.346Z,47.51
2023-04-17T17:31:09.387Z,47.44
2023-04-17T17:33:37.279Z,47.70
2023-04-17T17:36:08.944Z,47.51
2023-04-17T17:38:36.894Z,47.56
2023-04-17T17:41:05.203Z,47.61
2023-04-17T17:43:35.211Z,47.39
2023-04-17T17:46:03.164Z,47.64
2023-04-17T17:48:31.083Z,47.63
2023-04-17T17:50:59.031Z,47.62
2023-04-17T17:53:28.548Z,47.55
2023-04-17T17:55:56.815Z,47.61
2023-04-17T17:58:24.896Z,47.37
2023-04-17T18:00:53.113Z,47.71
2023-04-17T18:03:21.345Z,47.84
2023-04-17T18:05:49.391Z,47.91
2023-04-17T18:08:17.790Z,48.04
2023-04-17T18:10:47.196Z,48.22
2023-04-17T18:13:16.112Z,48.19
2023-04-17T18:15:44.069Z,48.56
2023-04-17T18:18:12.044Z,48.91
2023-04-17T18:20:40.492Z,48.61
2023-04-17T18:23:08.571Z,48.74
2023-04-17T18:25:36.622Z,48.57
2023-04-17T18:28:06.358Z,48.74
2023-04-17T18:30:34.371Z,48.94
2023-04-17T18:33:02.457Z,49.10
2023-04-17T18:35:30.385Z,49.13
2023-04-17T18:37:58.274Z,49.29
2023-04-17T18:40:26.160Z,49.31
2023-04-17T18:42:54.055Z,49.57
2023-04-17T18:45:24.406Z,49.90
2023-04-17T18:47:52.912Z,49.92
2023-04-17T18:50:20.943Z,50.29
2023-04-17T18:52:51.048Z,50.30
2023-04-17T18:55:19.496Z,50.47
2023-04-17T18:57:47.426Z,50.66
2023-04-17T19:00:15.726Z,50.43
2023-04-17T19:02:45.217Z,50.72
2023-04-17T19:05:13.247Z,50.70
2023-04-17T19:07:41.545Z,50.68
2023-04-17T19:10:10.304Z,51.08
2023-04-17T19:12:38.243Z,51.26
2023-04-17T19:15:07.214Z,51.11
2023-04-17T19:17:35.125Z,50.93
2023-04-17T19:20:04.552Z,51.31
2023-04-17T19:22:32.471Z,51.31
2023-04-17T19:25:00.417Z,51.39
2023-04-17T19:27:28.704Z,51.56
2023-04-17T19:29:56.590Z,51.46
2023-04-17T19:32:24.510Z,51.92
2023-04-17T19:34:52.504Z,52.09
2023-04-17T19:37:21.779Z,51.96
2023-04-17T19:39:49.708Z,52.36
2023-04-17T19:42:17.586Z,52.10
2023-04-17T19:44:46.162Z,52.44
2023-04-17T19:47:14.008Z,52.33
2023-04-17T19:49:41.859Z,52.65
2023-04-17T19:52:09.787Z,52.48
2023-04-17T19:54:39.387Z,53.17
2023-04-17T19:57:07.274Z,52.83
2023-04-17T19:59:35.167Z,53.45
2023-04-17T20:02:03.102Z,53.42
2023-04-17T20:04:31.205Z,53.38
2023-04-17T20:06:59.477Z,53.46
2023-04-17T20:09:27.488Z,53.88
2023-04-17T20:11:56.777Z,54.01
2023-04-17T20:14:25.774Z,53.94
2023-04-17T20:16:53.766Z,53.94
2023-04-17T20:19:21.672Z,54.25
2023-04-17T20:21:49.559Z,54.19
2023-04-17T20:24:17.434Z,54.13
2023-04-17T20:26:45.631Z,54.59
2023-04-17T20:29:15.078Z,54.64
2023-04-17T20:31:43.284Z,54.82
2023-04-17T20:34:11.445Z,54.79
2023-04-17T20:36:39.421Z,54.97
2023-04-17T20:39:07.339Z,54.74
2023-04-17T20:41:36.463Z,54.81
2023-04-17T20:44:05.700Z,54.82
2023-04-17T20:46:35.119Z,54.90
2023-04-17T20:49:03.369Z,55.08
2023-04-17T20:51:31.906Z,55.26
2023-04-17T20:53:59.815Z,55.09
2023-04-17T20:56:27.720Z,54.95
2023-04-17T20:58:55.636Z,54.87
2023-04-17T21:01:23.595Z,55.19
2023-04-17T21:03:53.094Z,55.20
2023-04-17T21:06:22.986Z,54.95
2023-04-17T21:08:51.064Z,54.85
2023-04-17T21:11:18.949Z,54.66
2023-04-17T21:13:46.864Z,54.85
2023-04-17T21:16:14.831Z,55.21
2023-04-17T21:18:42.756Z,55.33
2023-04-17T21:21:11.998Z,55.02
2023-04-17T21:23:39.928Z,55.06
2023-04-17T21:26:07.834Z,55.26
2023-04-17T21:28:37.409Z,55.14
2023-04-17T21:31:08.488Z,55.01
2023-04-17T21:33:36.576Z,54.84
2023-04-17T21:36:04.689Z,54.71
2023-04-17T21:38:33.953Z,54.44
2023-04-17T21:41:01.922Z,54.48
2023-04-17T21:43:29.783Z,54.27
2023-04-17T21:45:57.788Z,54.31
2023-04-17T21:48:25.774Z,54.18
2023-04-17T21:50:56.143Z,54.62
2023-04-17T21:53:24.172Z,54.35
2023-04-17T21:55:53.450Z,54.68
2023-04-17T21:58:21.321Z,54.49
2023-04-17T22:00:49.262Z,54.20
2023-04-17T22:03:17.835Z,54.68
2023-04-17T22:05:46.359Z,54.58
2023-04-17T22:08:14.247Z,54.35
2023-04-17T22:10:42.162Z,54.27
2023-04-17T22:13:11.568Z,54.34
2023-04-17T22:15:39.482Z,54.60
2023-04-17T22:18:07.336Z,54.57
2023-04-17T22:20:35.226Z,54.69
2023-04-17T22:23:03.111Z,54.62
2023-04-17T22:25:31.050Z,54.70
2023-04-17T22:27:58.940Z,54.69
2023-04-17T22:30:28.251Z,54.99
2023-04-17T22:32:57.222Z,55.11
2023-04-17T22:35:25.290Z,55.58
2023-04-17T22:37:53.217Z,55.38
2023-04-17T22:40:21.234Z,55.11
2023-04-17T22:42:50.289Z,55.14
2023-04-17T22:45:18.281Z,55.30
2023-04-17T22:47:47.581Z,55.12
2023-04-17T22:50:15.508Z,55.24
2023-04-17T22:52:43.399Z,55.07
2023-04-17T22:55:11.303Z,55.35
2023-04-17T22:57:39.552Z,55.29
2023-04-17T23:00:09.734Z,55.18
2023-04-17T23:02:37.815Z,55.51
2023-04-17T23:05:08.645Z,55.82
2023-04-17T23:07:36.586Z,55.65
2023-04-17T23:10:04.759Z,55.88
2023-04-17T23:12:32.758Z,55.97
2023-04-17T23:15:00.669Z,55.97
2023-04-17T23:17:28.537Z,55.66
2023-04-17T23:19:56.594Z,55.70
2023-04-17T23:22:25.930Z,55.42
2023-04-17T23:24:53.868Z,55.70
2023-04-17T23:27:22.055Z,55.92
2023-04-17T23:29:49.924Z,56.02
2023-04-17T23:32:17.914Z,56.01
2023-04-17T23:34:45.878Z,55.89
2023-04-17T23:37:13.739Z,56.09
2023-04-17T23:39:42.993Z,56.10
2023-04-17T23:42:10.854Z,56.35
2023-04-17T23:44:38.715Z,56.42
2023-04-17T23:47:06.641Z,56.38
2023-04-17T23:49:34.609Z,56.59
2023-04-17T23:52:02.521Z,56.84
2023-04-17T23:54:30.414Z,56.50
2023-04-17T23:56:59.680Z,56.67
2023-04-17T23:59:27.518Z,56.62
